Terminal Aerodrome Forecast
Issued by NWS Cleveland, OH

Home | Current Version | Previous Version | Text Only | Print | Product List | Glossary Off
Versions: 1 2 3 4 5 6 7 8 9 10 11 12 13 14 15 16 17 18 19 20 21 22 23 24 25 26

000
FTUS41 KCLE 212332
TAFCLE
TAF
KCLE 212332Z 2200/2306 03009KT P6SM -SHRA OVC080
     FM220200 04005KT 2SM -TSRA BR OVC035CB
     FM220900 19006KT P6SM OVC090
     FM221400 24007KT P6SM OVC025
     FM221600 25007KT P6SM OVC045
     FM230300 34006KT P6SM BKN015=

USA.gov is the U.S. government's official web portal to all federal, state and local government web resources and services.